Terminal Aerodrome Forecast
Issued by NWS

Home | Current Version | Previous Version | Text Only | Print | Product List | Glossary On
Versions: 1 2 3 4 5 6 7 8 9 10 11 12 13 14 15 16 17 18 19 20 21 22 23
000
FTUS43 KDLH 031858 AAB
TAFHYR
TAF AMD
KHYR 031858Z 0319/0418 30005G14KT P6SM VCSH BKN040
     FM040100 VRB03KT P6SM SCT035 BKN050
     FM041000 VRB03KT 5SM BR OVC025
     FM041500 32008KT P6SM SCT030=

USA.gov is the U.S. government's official web portal to all federal, state and local government web resources and services.